Time;durP1;ratioP1;P1;durP2;ratioP2;P2;SDS_P1;SDS_P2;PMS_P1;PMS_P2;Temp;Humidity;BMP_temperature;BMP_pressure;BME280_temperature;BME280_humidity;BME280_pressure;Samples;Min_cycle;Max_cycle;Signal;HPM_P1;HPM_P2
2023/01/20 00:00:40;;;;;;;4.70;2.25;;;;;;;7.97;78.36;93894.16;5022604;28;20029;-85
2023/01/20 00:03:06;;;;;;;3.90;2.40;;;;;;;7.99;78.25;93897.41;5035851;28;20079;-85
2023/01/20 00:05:31;;;;;;;3.22;1.90;;;;;;;7.96;78.21;93910.59;5054290;28;20041;-85
2023/01/20 00:07:57;;;;;;;3.75;2.10;;;;;;;7.89;78.66;93922.44;5035842;28;20039;-85
2023/01/20 00:10:22;;;;;;;6.32;2.05;;;;;;;8.09;78.81;93936.22;5024096;28;20482;-85
2023/01/20 00:12:48;;;;;;;4.93;2.17;;;;;;;8.02;79.77;93946.28;5039406;28;20188;-86
2023/01/20 00:15:14;;;;;;;4.15;1.85;;;;;;;8.04;78.94;93963.28;5039652;28;20482;-86
2023/01/20 00:17:39;;;;;;;3.75;1.70;;;;;;;7.89;77.98;93933.59;5074960;28;20028;-86
2023/01/20 00:20:05;;;;;;;2.25;1.30;;;;;;;7.89;77.65;93915.50;5041521;28;20479;-86
2023/01/20 00:22:31;;;;;;;2.42;0.88;;;;;;;7.53;76.63;93885.88;5041469;28;20040;-85
2023/01/20 00:24:56;;;;;;;4.55;1.08;;;;;;;7.08;77.45;93832.81;5062695;28;20064;-85
2023/01/20 00:27:21;;;;;;;1.67;0.70;;;;;;;6.92;77.66;93815.19;5041010;28;20036;-85
2023/01/20 00:29:47;;;;;;;0.60;0.30;;;;;;;6.78;75.84;93814.72;5041686;28;20053;-85
2023/01/20 00:32:12;;;;;;;0.50;0.30;;;;;;;7.01;76.04;93811.03;5053057;28;20033;-85
2023/01/20 00:34:38;;;;;;;0.60;0.32;;;;;;;7.01;75.08;93780.03;5002314;28;20033;-85
2023/01/20 00:37:06;;;;;;;0.43;0.30;;;;;;;7.18;74.68;93762.28;5001529;28;20028;-83
2023/01/20 00:39:32;;;;;;;0.93;0.40;;;;;;;6.98;75.70;93728.66;5037904;28;20158;-85
2023/01/20 00:41:57;;;;;;;0.90;0.50;;;;;;;7.13;75.82;93717.03;5054807;28;20452;-85
2023/01/20 00:44:23;;;;;;;1.20;0.75;;;;;;;7.29;76.94;93720.84;5054802;28;20040;-85
2023/01/20 00:46:48;;;;;;;1.70;0.70;;;;;;;7.25;77.52;93703.97;5049918;28;20426;-86
2023/01/20 00:49:14;;;;;;;1.05;0.60;;;;;;;7.28;76.47;93707.09;5052593;28;20029;-86
2023/01/20 00:51:39;;;;;;;0.82;0.50;;;;;;;7.39;76.07;93708.75;5018320;28;20033;-86
2023/01/20 00:54:04;;;;;;;0.90;0.47;;;;;;;7.43;76.05;93706.72;5018131;28;20033;-86
2023/01/20 00:56:30;;;;;;;1.80;0.98;;;;;;;7.48;75.41;93704.53;5043877;28;20021;-86
2023/01/20 00:58:55;;;;;;;1.70;0.90;;;;;;;7.37;75.71;93708.06;5037952;28;20502;-87
2023/01/20 01:01:21;;;;;;;1.25;0.80;;;;;;;7.39;76.47;93685.50;5054500;28;20025;-87
2023/01/20 01:03:47;;;;;;;3.45;1.30;;;;;;;7.31;76.44;93675.03;5037828;28;20043;-87
2023/01/20 01:06:14;;;;;;;1.83;0.90;;;;;;;7.59;75.41;93692.31;5023528;28;20033;-88
2023/01/20 01:08:40;;;;;;;3.88;2.55;;;;;;;7.47;75.55;93697.75;5017768;28;20099;-87
2023/01/20 01:11:05;;;;;;;3.95;2.08;;;;;;;7.45;75.69;93684.97;5017709;28;20087;-86
2023/01/20 01:13:31;;;;;;;2.60;1.30;;;;;;;7.55;75.73;93693.53;5033630;28;20025;-87
2023/01/20 01:15:56;;;;;;;4.28;1.55;;;;;;;7.45;75.57;93700.47;5033451;28;20052;-85
2023/01/20 01:18:22;;;;;;;3.63;1.88;;;;;;;7.36;76.21;93701.28;5001253;28;20548;-87
2023/01/20 01:20:47;;;;;;;3.10;1.38;;;;;;;7.28;77.57;93711.47;5034153;28;20033;-85
2023/01/20 01:23:13;;;;;;;1.63;0.90;;;;;;;7.26;77.69;93710.78;5017941;28;20045;-87
2023/01/20 01:25:38;;;;;;;3.53;1.17;;;;;;;7.20;77.67;93696.63;5017907;28;20067;-88
2023/01/20 01:28:04;;;;;;;1.92;0.90;;;;;;;7.27;77.99;93712.41;5033952;28;20082;-84
2023/01/20 01:30:29;;;;;;;1.77;1.00;;;;;;;7.19;78.11;93717.41;5034172;28;20102;-87
2023/01/20 01:32:55;;;;;;;1.60;0.70;;;;;;;7.12;78.49;93715.38;5033855;28;20065;-88
2023/01/20 01:35:20;;;;;;;1.88;0.80;;;;;;;6.99;78.24;93698.47;5017548;28;20033;-85
2023/01/20 01:37:46;;;;;;;1.45;0.60;;;;;;;7.06;78.22;93705.56;5051658;28;20021;-87
2023/01/20 01:40:11;;;;;;;2.42;0.70;;;;;;;6.97;78.63;93690.06;5051924;28;20044;-87
2023/01/20 01:42:37;;;;;;;1.80;0.50;;;;;;;7.20;77.76;93706.97;5030362;28;20172;-88
2023/01/20 01:45:11;;;;;;;1.35;0.50;;;;;;;7.15;77.66;93715.09;5071900;28;20044;-86
2023/01/20 01:47:59;;;;;;;0.50;0.30;;;;;;;6.92;77.94;93714.50;5071098;28;20032;-87
2023/01/20 01:50:31;;;;;;;0.80;0.30;;;;;;;6.44;79.30;93706.59;5033537;28;20044;-86
2023/01/20 01:52:57;;;;;;;0.82;0.40;;;;;;;6.14;81.19;93692.72;5018123;28;20121;-86
2023/01/20 01:55:25;;;;;;;0.68;0.40;;;;;;;6.33;81.45;93711.84;5017364;28;20036;-87
2023/01/20 01:57:50;;;;;;;2.10;0.40;;;;;;;6.17;82.42;93697.63;5033560;28;20079;-86
2023/01/20 02:00:16;;;;;;;1.98;0.70;;;;;;;6.10;82.48;93700.84;5008767;28;20472;-86
2023/01/20 02:02:42;;;;;;;1.10;0.43;;;;;;;6.12;82.45;93702.34;5036684;28;20066;-86
2023/01/20 02:05:08;;;;;;;0.70;0.40;;;;;;;6.05;81.97;93703.81;5036858;28;20076;-86
2023/01/20 02:07:33;;;;;;;0.57;0.40;;;;;;;5.94;82.77;93702.13;5036622;28;20115;-87
2023/01/20 02:09:59;;;;;;;1.25;0.50;;;;;;;6.01;81.24;93689.53;5022774;28;20071;-86
2023/01/20 02:12:25;;;;;;;0.93;0.50;;;;;;;5.99;81.62;93687.09;5031426;28;20054;-85
2023/01/20 02:14:55;;;;;;;0.63;0.40;;;;;;;6.00;81.46;93682.75;5016887;28;20025;-87
2023/01/20 02:17:32;;;;;;;0.60;0.40;;;;;;;6.13;81.22;93674.78;5016974;28;20311;-87
2023/01/20 02:20:04;;;;;;;1.00;0.50;;;;;;;6.07;81.35;93673.53;5033187;28;20052;-86
2023/01/20 02:22:37;;;;;;;;;;;;;;;6.10;81.29;93678.47;5051369;28;20020;-86
2023/01/20 02:25:36;;;;;;;0.85;0.50;;;;;;;5.95;81.82;93677.16;5033175;28;20426;-85
2023/01/20 02:28:23;;;;;;;1.92;0.50;;;;;;;5.87;81.75;93669.19;5062041;28;20494;-86
2023/01/20 02:30:54;;;;;;;1.20;0.50;;;;;;;5.86;81.71;93660.66;5052852;28;20032;-86
2023/01/20 02:33:32;;;;;;;1.23;0.50;;;;;;;5.99;81.99;93655.31;5052716;28;20036;-87
2023/01/20 02:36:10;;;;;;;0.55;0.45;;;;;;;6.15;81.90;93631.66;5050749;28;20044;-86
2023/01/20 02:38:41;;;;;;;2.33;0.63;;;;;;;6.31;81.74;93631.19;5017011;28;20094;-85
2023/01/20 02:41:23;;;;;;;0.93;0.50;;;;;;;6.36;82.36;93627.25;5032751;28;20438;-86
2023/01/20 02:43:51;;;;;;;0.85;0.43;;;;;;;6.41;82.48;93617.38;5018370;28;20032;-87
2023/01/20 02:46:38;;;;;;;0.93;0.52;;;;;;;6.50;82.75;93628.66;5027603;28;20044;-86
2023/01/20 02:49:16;;;;;;;1.25;0.80;;;;;;;6.61;82.12;93627.75;5038441;28;20453;-86
2023/01/20 02:51:45;;;;;;;1.42;0.80;;;;;;;6.71;81.87;93629.41;5070689;28;20482;-86
2023/01/20 02:54:11;;;;;;;0.93;0.60;;;;;;;6.64;82.13;93620.56;5034284;28;20032;-86
2023/01/20 02:56:37;;;;;;;0.90;0.60;;;;;;;6.79;81.84;93620.19;5016374;28;20055;-86
2023/01/20 02:59:05;;;;;;;0.82;0.60;;;;;;;6.72;80.92;93594.91;5016267;28;20479;-86
2023/01/20 03:01:38;;;;;;;3.00;0.93;;;;;;;6.69;81.30;93609.84;5020137;28;20558;-86
2023/01/20 03:04:04;;;;;;;2.17;1.10;;;;;;;6.91;80.51;93624.28;5044837;28;20040;-86
2023/01/20 03:06:33;;;;;;;2.00;0.95;;;;;;;6.80;80.76;93621.78;5023403;28;20035;-84
2023/01/20 03:08:59;;;;;;;1.83;0.90;;;;;;;6.88;80.41;93642.59;5056977;28;20494;-87
2023/01/20 03:11:25;;;;;;;2.35;1.10;;;;;;;6.84;80.43;93631.72;5040273;28;20025;-85
2023/01/20 03:14:00;;;;;;;2.65;1.35;;;;;;;7.08;79.75;93639.13;5039140;28;20060;-86
2023/01/20 03:16:26;;;;;;;2.28;1.40;;;;;;;6.74;80.22;93627.50;5056696;28;20021;-86
2023/01/20 03:18:51;;;;;;;2.67;1.27;;;;;;;6.84;79.84;93633.50;5039767;28;20033;-87
2023/01/20 03:21:17;;;;;;;1.88;1.05;;;;;;;6.82;79.86;93630.22;5039630;28;20040;-86
2023/01/20 03:23:47;;;;;;;4.07;1.30;;;;;;;6.86;80.35;93624.69;5035717;28;20056;-84
2023/01/20 03:26:14;;;;;;;2.53;1.00;;;;;;;6.95;80.11;93625.63;5036655;28;20366;-85
2023/01/20 03:28:41;;;;;;;2.70;1.60;;;;;;;6.96;79.95;93637.59;5052757;28;20045;-85
2023/01/20 03:31:33;;;;;;;3.95;1.67;;;;;;;7.09;79.57;93627.81;5035805;28;20091;-84
2023/01/20 03:33:59;;;;;;;1.92;1.10;;;;;;;7.10;80.03;93626.91;5052330;28;20130;-85
2023/01/20 03:36:26;;;;;;;2.70;1.23;;;;;;;7.18;80.32;93633.13;5036142;28;20025;-84
2023/01/20 03:38:52;;;;;;;4.15;1.70;;;;;;;7.14;80.68;93628.25;5053966;28;20477;-85
2023/01/20 03:41:45;;;;;;;2.63;1.30;;;;;;;7.08;80.20;93636.53;5038319;28;20098;-84
2023/01/20 03:44:38;;;;;;;2.83;1.83;;;;;;;7.12;80.46;93639.66;5073694;28;20048;-85
2023/01/20 03:47:24;;;;;;;2.88;0.90;;;;;;;7.11;79.95;93641.44;5055745;28;20115;-84
2023/01/20 03:49:53;;;;;;;4.35;1.58;;;;;;;7.05;80.46;93599.81;5046744;28;20403;-84
2023/01/20 03:52:50;;;;;;;1.88;0.90;;;;;;;7.28;80.46;93608.94;5019673;28;20025;-85
2023/01/20 03:55:35;;;;;;;1.52;0.60;;;;;;;7.36;80.21;93587.59;5005021;28;20045;-84
2023/01/20 03:58:13;;;;;;;2.75;0.80;;;;;;;7.20;80.60;93602.84;5020429;28;20021;-84
2023/01/20 04:00:41;;;;;;;4.18;0.90;;;;;;;7.18;80.36;93594.38;5040948;28;20062;-85
2023/01/20 04:03:09;;;;;;;2.55;0.70;;;;;;;7.32;79.65;93591.41;5039038;28;20491;-84
2023/01/20 04:05:36;;;;;;;2.85;0.90;;;;;;;6.97;79.79;93577.28;5039536;28;20036;-85
2023/01/20 04:08:04;;;;;;;3.53;1.17;;;;;;;6.87;79.65;93579.03;5013188;28;20036;-84
2023/01/20 04:10:30;;;;;;;2.90;1.38;;;;;;;6.86;80.58;93587.72;5003090;28;20128;-84
2023/01/20 04:12:55;;;;;;;2.20;1.10;;;;;;;6.75;80.93;93582.69;5036493;28;20537;-84
2023/01/20 04:15:20;;;;;;;2.17;1.10;;;;;;;6.98;80.37;93573.72;5037880;28;20069;-83
2023/01/20 04:17:46;;;;;;;2.20;1.20;;;;;;;6.97;80.74;93574.69;5037889;28;20082;-84
2023/01/20 04:20:12;;;;;;;1.75;1.00;;;;;;;7.00;80.94;93561.50;5038067;28;20032;-84
2023/01/20 04:22:51;;;;;;;2.53;1.15;;;;;;;7.10;81.17;93551.16;5037929;28;20071;-85
2023/01/20 04:25:28;;;;;;;2.28;1.10;;;;;;;6.96;81.26;93534.31;5054392;28;20045;-85
2023/01/20 04:27:54;;;;;;;9.25;8.35;;;;;;;7.03;81.08;93547.50;5038272;28;20024;-84
2023/01/20 04:30:19;;;;;;;1.92;1.10;;;;;;;7.06;80.11;93557.56;5022216;28;20039;-84
2023/01/20 04:32:45;;;;;;;1.20;0.60;;;;;;;6.89;80.29;93538.41;5021864;28;20477;-84
2023/01/20 04:35:15;;;;;;;1.08;0.70;;;;;;;7.06;79.59;93542.88;5055147;28;20047;-84
2023/01/20 04:37:40;;;;;;;1.48;0.88;;;;;;;7.13;80.05;93543.13;5021367;28;20064;-84
2023/01/20 04:40:06;;;;;;;3.97;1.73;;;;;;;7.07;80.61;93531.59;5055036;28;20454;-85
2023/01/20 04:42:32;;;;;;;1.77;1.20;;;;;;;7.07;80.89;93530.78;5021990;28;20024;-85
2023/01/20 04:44:58;;;;;;;3.03;1.20;;;;;;;7.13;80.80;93541.41;5036849;28;20090;-84
2023/01/20 04:47:23;;;;;;;1.60;0.90;;;;;;;7.21;80.67;93550.22;5055745;28;20032;-85
2023/01/20 04:49:49;;;;;;;2.20;0.98;;;;;;;7.13;80.72;93540.56;5054865;28;20045;-85
2023/01/20 04:52:15;;;;;;;1.98;1.10;;;;;;;7.27;80.40;93552.22;5018219;28;20020;-86
2023/01/20 04:54:40;;;;;;;3.38;1.58;;;;;;;7.22;80.24;93546.69;5034766;28;20052;-84
2023/01/20 04:57:06;;;;;;;4.57;2.08;;;;;;;7.20;80.45;93530.50;5018152;28;20115;-86
2023/01/20 04:59:31;;;;;;;2.95;1.70;;;;;;;7.21;80.44;93527.78;5034847;28;20033;-85
2023/01/20 05:01:57;;;;;;;2.78;1.98;;;;;;;7.31;80.40;93535.53;5034701;28;20033;-86
2023/01/20 05:04:22;;;;;;;3.13;2.38;;;;;;;7.29;80.19;93524.50;5046126;28;20078;-85
2023/01/20 05:06:48;;;;;;;3.00;1.20;;;;;;;7.37;80.04;93547.88;5037690;28;20090;-86
2023/01/20 05:09:14;;;;;;;1.98;1.20;;;;;;;7.34;79.95;93548.97;5054400;28;20486;-85
2023/01/20 05:11:40;;;;;;;2.97;2.40;;;;;;;7.44;79.95;93556.72;5038012;28;20028;-84
2023/01/20 05:14:06;;;;;;;3.45;1.80;;;;;;;7.50;79.83;93563.91;5037802;28;20033;-85
2023/01/20 05:16:32;;;;;;;3.50;2.30;;;;;;;7.37;79.65;93547.88;5072460;28;20058;-83
2023/01/20 05:18:58;;;;;;;2.53;1.38;;;;;;;7.32;79.53;93550.88;5053043;28;20029;-85
2023/01/20 05:21:24;;;;;;;3.35;1.67;;;;;;;7.37;79.37;93584.88;5017093;28;20487;-80
2023/01/20 05:23:49;;;;;;;5.18;2.30;;;;;;;7.35;79.59;93573.03;5051599;28;20510;-80
2023/01/20 05:26:15;;;;;;;3.63;1.88;;;;;;;7.22;79.98;93569.94;5033818;28;20469;-82
2023/01/20 05:28:41;;;;;;;3.83;1.30;;;;;;;7.19;80.14;93596.00;5033923;28;20048;-78
2023/01/20 05:31:07;;;;;;;3.92;1.50;;;;;;;7.10;80.72;93597.66;5033376;28;20029;-80
2023/01/20 05:33:32;;;;;;;2.40;1.40;;;;;;;7.27;80.37;93593.56;5046740;28;20494;-86
2023/01/20 05:35:58;;;;;;;4.75;1.50;;;;;;;7.28;80.32;93582.31;5033904;28;20486;-83
2023/01/20 05:38:38;;;;;;;5.53;1.80;;;;;;;7.08;80.43;93569.38;5024923;28;20040;-85
2023/01/20 05:41:05;;;;;;;4.53;2.13;;;;;;;7.25;80.22;93598.88;5071712;28;20102;-85
2023/01/20 05:43:31;;;;;;;5.35;3.20;;;;;;;7.31;80.14;93623.34;5033038;28;20048;-86
2023/01/20 05:45:57;;;;;;;4.03;2.30;;;;;;;7.41;80.25;93637.09;5016980;28;20106;-84
2023/01/20 05:48:22;;;;;;;3.83;2.38;;;;;;;7.42;80.14;93637.91;5033111;28;20037;-85
2023/01/20 05:50:48;;;;;;;5.95;2.30;;;;;;;7.46;79.88;93624.56;5033347;28;20041;-83
2023/01/20 05:53:13;;;;;;;61.58;17.70;;;;;;;7.46;79.28;93614.22;5017532;28;20028;-85
2023/01/20 05:55:39;;;;;;;91.93;28.88;;;;;;;7.24;80.04;93583.50;5027759;28;20384;-85
2023/01/20 05:58:04;;;;;;;40.38;12.88;;;;;;;7.42;79.66;93592.22;5063918;28;20024;-83
2023/01/20 06:00:30;;;;;;;7.90;3.17;;;;;;;7.39;80.16;93597.66;5077061;28;20026;-81
2023/01/20 06:02:55;;;;;;;6.97;2.97;;;;;;;7.46;79.90;93596.13;5038712;28;20033;-86
2023/01/20 06:05:21;;;;;;;11.15;3.70;;;;;;;7.27;80.45;93590.97;5042833;28;20090;-85
2023/01/20 06:07:48;;;;;;;4.50;2.03;;;;;;;7.41;79.79;93598.34;5030218;28;20435;-86
2023/01/20 06:10:14;;;;;;;3.10;1.50;;;;;;;7.52;79.54;93605.94;5031878;28;20044;-85
2023/01/20 06:12:39;;;;;;;2.60;1.67;;;;;;;7.50;79.21;93602.69;5047969;28;20024;-85
2023/01/20 06:15:05;;;;;;;5.80;2.30;;;;;;;7.45;79.54;93597.09;5047643;28;20063;-86
2023/01/20 06:17:31;;;;;;;4.50;1.83;;;;;;;7.44;80.10;93604.97;5043167;28;20489;-86
2023/01/20 06:19:56;;;;;;;6.10;2.70;;;;;;;7.51;79.53;93609.47;5056301;28;20033;-86
2023/01/20 06:22:22;;;;;;;4.07;1.70;;;;;;;7.56;79.38;93612.44;5048694;28;20103;-86
2023/01/20 06:24:47;;;;;;;4.25;1.70;;;;;;;7.55;79.50;93610.00;5051103;28;20444;-85
2023/01/20 06:27:13;;;;;;;5.25;1.63;;;;;;;7.39;79.72;93580.38;5066375;28;20045;-85
2023/01/20 06:29:38;;;;;;;5.95;1.88;;;;;;;7.37;79.99;93586.63;5066219;28;20178;-86
2023/01/20 06:32:06;;;;;;;4.43;1.40;;;;;;;7.60;79.19;93605.22;5065344;28;20480;-85
2023/01/20 06:34:32;;;;;;;3.28;1.50;;;;;;;7.47;79.25;93608.13;5028605;28;20028;-86
2023/01/20 06:36:57;;;;;;;3.80;1.38;;;;;;;7.38;79.84;93629.59;5032612;28;20068;-85
2023/01/20 06:39:23;;;;;;;4.03;1.95;;;;;;;7.55;79.76;93636.69;5048495;28;20044;-86
2023/01/20 06:41:48;;;;;;;53.72;12.25;;;;;;;7.46;79.19;93632.31;5064283;28;20024;-86
2023/01/20 06:44:14;;;;;;;11.10;4.00;;;;;;;7.43;78.85;93619.66;5064823;28;20123;-86
2023/01/20 06:46:39;;;;;;;5.95;1.75;;;;;;;6.96;79.93;93598.06;5048210;28;20702;-84
2023/01/20 06:49:05;;;;;;;6.53;1.58;;;;;;;6.72;81.80;93591.50;5030867;28;20029;-85
2023/01/20 06:51:32;;;;;;;4.00;1.52;;;;;;;6.83;81.32;93593.16;5064985;28;20037;-83
2023/01/20 06:53:57;;;;;;;2.67;1.50;;;;;;;6.82;81.38;93573.44;5065346;28;20107;-86
2023/01/20 06:56:23;;;;;;;3.00;1.55;;;;;;;6.84;81.41;93556.88;5037288;28;20446;-86
2023/01/20 06:58:48;;;;;;;3.90;1.50;;;;;;;6.96;81.49;93579.97;5031603;28;20485;-86
2023/01/20 07:01:17;;;;;;;74.57;16.45;;;;;;;7.14;81.22;93574.00;5044550;28;20041;-84
2023/01/20 07:03:43;;;;;;;26.13;7.32;;;;;;;7.13;81.06;93558.63;5029576;28;20078;-85
2023/01/20 07:06:24;;;;;;;19.98;5.03;;;;;;;7.23;80.82;93561.22;5031546;28;20057;-84
2023/01/20 07:08:49;;;;;;;13.10;3.33;;;;;;;7.16;81.24;93577.28;5067156;28;20087;-85
2023/01/20 07:11:15;;;;;;;17.23;5.68;;;;;;;7.16;80.44;93582.44;5049036;28;20515;-86
2023/01/20 07:13:40;;;;;;;11.02;3.78;;;;;;;7.04;79.96;93554.28;5030632;28;20044;-85
2023/01/20 07:16:06;;;;;;;27.35;7.07;;;;;;;7.31;79.22;93563.94;5015711;28;20037;-86
2023/01/20 07:18:32;;;;;;;41.35;10.98;;;;;;;7.23;79.10;93545.72;5038342;28;20025;-86
2023/01/20 07:20:57;;;;;;;29.67;8.65;;;;;;;7.29;79.11;93533.06;5054745;28;20037;-86
2023/01/20 07:23:23;;;;;;;30.40;9.45;;;;;;;7.28;78.93;93544.38;5047147;28;20060;-86
2023/01/20 07:26:05;;;;;;;40.03;12.85;;;;;;;7.29;78.86;93545.16;5022288;28;20131;-86
2023/01/20 07:28:31;;;;;;;10.52;3.42;;;;;;;7.30;77.75;93550.22;5039476;28;20033;-86
2023/01/20 07:31:10;;;;;;;11.45;3.92;;;;;;;7.16;77.22;93546.28;5047846;28;20056;-86
2023/01/20 07:33:36;;;;;;;5.20;1.92;;;;;;;6.78;78.35;93557.41;5008220;28;20107;-86
2023/01/20 07:36:01;;;;;;;1.85;0.75;;;;;;;6.74;77.89;93542.31;5026309;28;20037;-81
2023/01/20 07:38:28;;;;;;;1.02;0.50;;;;;;;6.76;77.45;93563.66;5050226;28;20036;-89
2023/01/20 07:41:03;;;;;;;88.63;18.13;;;;;;;6.75;77.19;93549.13;5034518;28;20469;-85
2023/01/20 07:43:29;;;;;;;11.32;3.30;;;;;;;6.95;77.32;93558.50;5030239;28;20249;-84
2023/01/20 07:45:59;;;;;;;2.17;0.90;;;;;;;6.81;77.55;93556.34;5039243;28;20490;-83
2023/01/20 07:48:26;;;;;;;3.83;0.80;;;;;;;6.87;78.29;93563.53;5032530;28;20037;-84
2023/01/20 07:51:02;;;;;;;51.95;12.10;;;;;;;6.71;78.56;93549.41;5032159;28;20086;-84
2023/01/20 07:53:31;;;;;;;34.22;8.55;;;;;;;6.92;78.34;93569.13;5013441;28;20029;-84
2023/01/20 07:55:59;;;;;;;166.98;34.33;;;;;;;7.02;78.52;93594.91;5034254;28;20037;-85
2023/01/20 07:58:25;;;;;;;35.97;8.38;;;;;;;7.08;79.11;93587.47;5016960;28;20021;-84
2023/01/20 08:00:50;;;;;;;23.13;5.80;;;;;;;7.26;78.71;93586.78;5025795;28;20422;-85
2023/01/20 08:03:16;;;;;;;32.70;9.35;;;;;;;7.13;78.44;93587.88;5032405;28;20044;-85
2023/01/20 08:05:41;;;;;;;17.58;5.47;;;;;;;7.06;78.76;93581.63;5050013;28;20454;-85
2023/01/20 08:08:07;;;;;;;11.02;3.30;;;;;;;6.99;78.55;93554.69;5054976;28;20469;-82
2023/01/20 08:10:33;;;;;;;7.57;1.85;;;;;;;7.20;79.46;93561.50;5072406;28;20032;-85
2023/01/20 08:12:58;;;;;;;1.92;1.00;;;;;;;6.94;79.84;93547.38;5032977;28;20071;-85
2023/01/20 08:15:24;;;;;;;2.28;0.93;;;;;;;6.80;79.50;93542.63;5029979;28;20295;-86
2023/01/20 08:17:54;;;;;;;1.60;0.80;;;;;;;6.76;80.22;93527.53;5029615;28;20087;-85
2023/01/20 08:20:19;;;;;;;5.28;2.17;;;;;;;6.96;80.00;93551.56;5031749;28;20033;-86
2023/01/20 08:22:44;;;;;;;4.70;2.40;;;;;;;6.87;80.64;93524.81;5068927;28;20421;-84
2023/01/20 08:25:10;;;;;;;3.88;1.58;;;;;;;6.96;79.89;93533.50;5065189;28;20106;-86
2023/01/20 08:27:36;;;;;;;2.40;1.20;;;;;;;6.97;81.53;93532.56;5010656;28;20044;-85
2023/01/20 08:30:01;;;;;;;3.83;1.35;;;;;;;7.01;81.28;93521.81;5033026;28;20032;-85
2023/01/20 08:32:27;;;;;;;4.55;1.80;;;;;;;7.05;81.05;93519.75;5018306;28;20489;-86
2023/01/20 08:34:53;;;;;;;1.83;0.90;;;;;;;7.29;80.93;93532.25;5050154;28;20039;-86
2023/01/20 08:37:27;;;;;;;4.47;1.95;;;;;;;7.25;81.08;93520.59;5064855;28;20043;-86
2023/01/20 08:39:55;;;;;;;16.48;6.55;;;;;;;7.37;81.00;93519.47;5034067;28;20028;-87
2023/01/20 08:42:21;;;;;;;16.13;7.07;;;;;;;7.45;81.17;93511.03;5051866;28;20032;-86
2023/01/20 08:44:51;;;;;;;119.85;37.75;;;;;;;7.48;80.85;93498.63;5049887;28;20028;-83
2023/01/20 08:47:16;;;;;;;19.55;8.05;;;;;;;7.47;80.38;93478.13;5031887;28;20055;-86
2023/01/20 08:49:42;;;;;;;36.50;13.40;;;;;;;7.55;80.49;93497.13;5032980;28;20483;-86
2023/01/20 08:52:07;;;;;;;11.57;5.70;;;;;;;7.61;80.48;93493.97;5042254;28;20021;-86
2023/01/20 08:54:33;;;;;;;4.72;2.58;;;;;;;7.49;79.41;93479.56;5031929;28;20422;-88
2023/01/20 08:56:59;;;;;;;2.22;1.35;;;;;;;7.67;78.38;93491.78;5045297;28;20040;-87
2023/01/20 08:59:24;;;;;;;2.55;0.95;;;;;;;7.53;77.56;93493.06;5032731;28;20056;-87
2023/01/20 09:01:50;;;;;;;2.38;0.90;;;;;;;7.45;78.49;93473.06;5040327;28;20017;-87
2023/01/20 09:04:15;;;;;;;1.83;0.70;;;;;;;7.54;78.43;93461.88;5048334;28;20040;-87
2023/01/20 09:06:45;;;;;;;3.30;0.90;;;;;;;7.66;78.01;93448.78;5033956;28;20497;-86
2023/01/20 09:09:13;;;;;;;2.20;0.90;;;;;;;7.89;77.72;93475.91;5048877;28;20024;-86
2023/01/20 09:11:38;;;;;;;2.40;1.02;;;;;;;7.87;77.55;93482.16;5029292;28;20040;-87
2023/01/20 09:14:04;;;;;;;2.03;1.08;;;;;;;7.97;76.19;93483.75;5050160;28;20036;-87
2023/01/20 09:16:29;;;;;;;2.33;1.10;;;;;;;7.70;76.55;93460.47;5034363;28;20407;-87
2023/01/20 09:18:55;;;;;;;2.72;1.08;;;;;;;7.74;75.48;93477.31;5007471;28;20045;-87
2023/01/20 09:21:20;;;;;;;1.73;0.82;;;;;;;7.78;76.16;93466.56;5042751;28;20127;-85
2023/01/20 09:23:47;;;;;;;2.10;1.10;;;;;;;8.05;77.03;93470.94;5050436;28;20427;-87
2023/01/20 09:26:12;;;;;;;2.30;1.50;;;;;;;8.20;75.61;93450.53;5049856;28;20064;-87
2023/01/20 09:28:38;;;;;;;3.10;1.40;;;;;;;8.36;75.28;93454.25;5031338;28;20075;-87
2023/01/20 09:31:05;;;;;;;2.40;1.02;;;;;;;8.56;74.83;93452.41;5031796;28;20036;-87
2023/01/20 09:33:31;;;;;;;3.55;1.10;;;;;;;8.57;74.84;93431.53;5032654;28;20031;-87
2023/01/20 09:35:57;;;;;;;3.55;1.42;;;;;;;8.66;72.82;93440.16;5050023;28;20055;-87
2023/01/20 09:44:14;;;;;;;1.27;0.70;;;;;;;8.89;71.27;93449.13;5053674;28;20501;-87
2023/01/20 09:47:18;;;;;;;1.63;0.80;;;;;;;9.02;70.73;93448.72;5065155;28;20048;-87
2023/01/20 09:53:06;;;;;;;2.50;1.27;;;;;;;9.38;71.47;93436.47;5058410;28;20125;-87
2023/01/20 09:55:51;;;;;;;6.38;3.63;;;;;;;9.49;70.72;93434.59;5031817;28;20499;-86
2023/01/20 09:58:44;;;;;;;4.00;2.40;;;;;;;10.08;70.51;93409.56;5023637;28;20511;-88
2023/01/20 10:01:30;;;;;;;2.60;1.50;;;;;;;10.23;69.09;93400.19;5060620;28;20058;-88
2023/01/20 10:04:16;;;;;;;2.25;1.13;;;;;;;10.25;67.14;93398.25;5030431;28;20076;-85
2023/01/20 10:07:07;;;;;;;2.53;1.40;;;;;;;10.36;68.01;93399.75;5030449;28;20476;-85
2023/01/20 10:09:35;;;;;;;3.22;1.58;;;;;;;10.35;67.30;93398.13;5050198;28;20041;-85
2023/01/20 10:12:24;;;;;;;3.05;1.70;;;;;;;10.46;66.74;93384.03;5028748;28;20417;-85
2023/01/20 10:14:54;;;;;;;2.90;1.17;;;;;;;10.56;65.59;93361.34;5046959;28;20045;-85
2023/01/20 10:17:39;;;;;;;3.17;1.50;;;;;;;10.80;65.56;93341.50;5032597;28;20091;-82
2023/01/20 10:20:12;;;;;;;5.15;2.70;;;;;;;10.74;66.72;93336.00;5042938;28;20025;-81
2023/01/20 10:22:44;;;;;;;2.78;1.60;;;;;;;10.78;63.70;93357.28;5027595;28;20041;-81
2023/01/20 10:25:22;;;;;;;3.67;2.13;;;;;;;10.83;69.26;93354.97;5052983;28;20068;-81
2023/01/20 10:27:50;;;;;;;2.67;1.55;;;;;;;10.99;66.84;93361.94;5019400;28;20055;-76
2023/01/20 10:30:16;;;;;;;3.75;1.40;;;;;;;10.99;64.14;93361.94;5014945;28;20122;-79
2023/01/20 10:32:52;;;;;;;1.85;0.82;;;;;;;11.09;63.88;93374.78;5020903;28;20051;-79
2023/01/20 10:35:20;;;;;;;3.30;1.30;;;;;;;10.99;64.78;93371.53;5033585;28;20041;-79
2023/01/20 10:37:46;;;;;;;5.97;1.63;;;;;;;11.01;62.85;93351.41;5016008;28;20036;-80
2023/01/20 10:40:26;;;;;;;7.30;1.58;;;;;;;10.98;62.48;93352.53;5047468;28;20043;-84
2023/01/20 10:42:54;;;;;;;41.47;9.93;;;;;;;11.06;62.26;93360.31;5056202;28;20059;-85
2023/01/20 10:45:41;;;;;;;4.72;1.30;;;;;;;10.72;60.89;93345.72;5033717;28;20025;-84
2023/01/20 10:48:33;;;;;;;4.30;1.88;;;;;;;10.62;63.65;93368.47;5035889;28;20117;-83
2023/01/20 10:51:33;;;;;;;2.85;0.90;;;;;;;10.50;67.60;93367.16;5039948;28;20056;-84
2023/01/20 10:54:24;;;;;;;1.67;0.70;;;;;;;10.40;67.22;93382.09;5037373;28;20123;-84
2023/01/20 10:56:54;;;;;;;2.13;0.80;;;;;;;9.86;69.24;93374.63;5079968;28;20039;-83
2023/01/20 10:59:26;;;;;;;2.03;1.00;;;;;;;9.85;69.42;93360.84;5044082;28;20123;-84
2023/01/20 11:01:51;;;;;;;1.77;0.75;;;;;;;9.68;69.95;93355.78;5075234;28;20036;-83
2023/01/20 11:04:18;;;;;;;3.35;0.90;;;;;;;9.29;69.75;93344.13;5054105;28;20082;-83
2023/01/20 11:06:47;;;;;;;2.90;1.67;;;;;;;9.53;69.60;93343.41;5048147;28;20266;-83
2023/01/20 11:09:29;;;;;;;2.33;1.60;;;;;;;9.42;70.27;93361.84;5037271;28;20040;-83
2023/01/20 11:11:55;;;;;;;2.70;0.90;;;;;;;9.45;69.53;93363.31;5042906;28;20036;-83
2023/01/20 11:14:21;;;;;;;1.20;0.70;;;;;;;9.37;70.92;93370.06;5054528;28;20474;-84
2023/01/20 11:16:49;;;;;;;4.05;1.75;;;;;;;9.48;71.35;93355.22;5053596;28;20037;-84
2023/01/20 11:19:14;;;;;;;3.10;2.05;;;;;;;9.29;71.05;93341.53;5039564;28;20024;-83
2023/01/20 11:21:40;;;;;;;3.55;1.50;;;;;;;9.49;70.65;93342.09;5058615;28;20055;-82
2023/01/20 11:24:42;;;;;;;3.30;2.67;;;;;;;9.60;69.88;93348.78;5035445;28;20065;-82
2023/01/20 11:27:19;;;;;;;2.42;1.48;;;;;;;9.69;69.49;93354.81;5051648;28;20048;-82
2023/01/20 11:29:49;;;;;;;2.00;0.80;;;;;;;9.57;68.08;93354.28;5052805;28;20043;-81
2023/01/20 11:32:41;;;;;;;4.00;1.90;;;;;;;9.62;69.19;93352.03;5056656;28;20037;-82
2023/01/20 11:35:20;;;;;;;4.22;1.88;;;;;;;9.57;69.25;93354.28;5049023;28;20068;-84
2023/01/20 11:37:46;;;;;;;6.95;3.60;;;;;;;9.72;69.87;93342.34;5069151;28;20494;-81
2023/01/20 11:40:20;;;;;;;6.15;3.22;;;;;;;9.68;70.04;93359.19;5051235;28;20027;-82
2023/01/20 11:42:47;;;;;;;3.38;1.77;;;;;;;9.69;69.79;93358.19;5054372;28;20029;-83
2023/01/20 11:45:33;;;;;;;3.88;1.98;;;;;;;9.74;71.36;93368.91;5016002;28;20029;-83
2023/01/20 11:48:14;;;;;;;3.30;2.60;;;;;;;9.89;69.85;93370.91;5046892;28;20056;-83
2023/01/20 11:50:44;;;;;;;2.72;1.85;;;;;;;9.89;69.42;93378.69;5066069;28;20059;-85
2023/01/20 11:53:36;;;;;;;2.00;1.05;;;;;;;9.97;69.58;93376.97;5032940;28;20036;-85
2023/01/20 11:56:04;;;;;;;2.30;1.50;;;;;;;9.91;69.23;93367.19;5032635;28;20070;-78
2023/01/20 11:58:56;;;;;;;3.78;2.80;;;;;;;9.93;70.64;93380.81;5052068;28;20032;-79